Aviation Digital Data Service (ADDS)

Output produced by METARs form (2205 UTC 24 March 2019)
found at http://www.aviationweather.gov/metar/data/
 
TAF FIMR 241710Z 2418/2500 07025G38KT 8000 -SHRA FEW010 FEW013TCU BKN015 
     TEMPO MAX50KT 2000 SHRA/TSRA FEW005 SCT012CB BKN014
       
FIMP 242200Z 13009KT 9999 SCT016 BKN250 28/23 Q1008
TAF FIMP 241700Z 2418/2600 13010G28KT 9999 SCT015 BKN050 
     TEMPO 7000 -SHRA FEW010 BKN015 
     PROB30 
     TEMPO 2420/2503 5000 SHRA/TSRA FEW007 FEW012CB BKN014